Rushmore, Minnesota
Current Conditions -  °F | °C
As of 10:15 PM on Tuesday 27 Jan 2015 (Local Time) from KOTG Reporting Station
Clear Clear  
Wind Chill: 24°   Ceiling: Unl
Heat Index: 34°   Visibility: 10mi
Dew Point: 28°   Wind: 14mph
Humidity: 81%   Direction: 160°SSE
Pressure: 29.99"   Gusts: NA
Location:  43.62°N, 95.8°W
Report Text: KOTG 280415Z AUTO 16012KT 10SM CLR 01/M02 A2999 RMK AO1
Loading
Personal Weather Stations






























Interactive Weather Map New forecast layout! Learn more

10-Day Weather Forecast

Advertisements
Track Severe Weather on mobile